createdAt,value
2023-10-01T00:03:20.488Z,101390.78
2023-10-01T00:07:22.252Z,101380.84
2023-10-01T00:11:25.655Z,101382.03
2023-10-01T00:15:29.165Z,101382.63
2023-10-01T00:19:31.359Z,101372.25
2023-10-01T00:23:33.515Z,101375.88
2023-10-01T00:27:35.546Z,101376.81
2023-10-01T00:31:38.273Z,101369.44
2023-10-01T00:35:42.306Z,101370.13
2023-10-01T00:39:45.051Z,101365.78
2023-10-01T00:43:47.137Z,101372.75
2023-10-01T00:47:49.541Z,101370.81
2023-10-01T00:51:52.265Z,101373.25
2023-10-01T00:55:55.257Z,101358.66
2023-10-01T00:59:57.386Z,101357.78
2023-10-01T01:03:59.551Z,101370.25
2023-10-01T01:08:34.956Z,101362.47
2023-10-01T01:12:37.880Z,101374.88
2023-10-01T01:16:42.330Z,101370.59
2023-10-01T01:20:47.059Z,101368.41
2023-10-01T01:24:49.116Z,101352.06
2023-10-01T01:28:51.346Z,101363.66
2023-10-01T01:32:56.868Z,101371.72
2023-10-01T01:36:59.249Z,101365.53
2023-10-01T01:41:02.313Z,101364.25
2023-10-01T01:45:20.181Z,101348.59
2023-10-01T01:49:23.014Z,101346.84
2023-10-01T01:53:35.393Z,101336.88
2023-10-01T01:57:37.398Z,101334.09
2023-10-01T02:01:39.292Z,101333.19
2023-10-01T02:05:43.140Z,101345.22
2023-10-01T02:09:44.873Z,101346.78
2023-10-01T02:13:47.949Z,101341.16
2023-10-01T02:17:50.456Z,101336.88
2023-10-01T02:21:54.909Z,101343.66
2023-10-01T02:26:01.637Z,101339.06
2023-10-01T02:30:14.707Z,101342.44
2023-10-01T02:34:19.173Z,101344.81
2023-10-01T02:38:40.954Z,101349.06
2023-10-01T02:42:45.115Z,101344.44
2023-10-01T02:46:52.042Z,101342.72
2023-10-01T02:50:56.256Z,101351.63
2023-10-01T02:55:01.465Z,101344.38
2023-10-01T02:59:12.716Z,101336.09
2023-10-01T03:03:18.520Z,101333.00
2023-10-01T03:07:25.607Z,101341.78
2023-10-01T03:11:35.696Z,101334.03
2023-10-01T03:15:42.669Z,101331.97
2023-10-01T03:19:53.543Z,101331.91
2023-10-01T03:23:56.079Z,101325.38
2023-10-01T03:28:02.516Z,101330.38
2023-10-01T03:32:23.841Z,101326.72
2023-10-01T03:36:26.938Z,101334.09
2023-10-01T03:40:29.625Z,101327.94
2023-10-01T03:45:01.168Z,101317.50
2023-10-01T03:49:23.269Z,101320.81
2023-10-01T03:53:26.551Z,101317.50
2023-10-01T03:57:30.444Z,101317.59
2023-10-01T04:01:35.520Z,101310.69
2023-10-01T04:05:45.533Z,101324.22
2023-10-01T04:09:47.885Z,101327.25
2023-10-01T04:14:09.505Z,101331.22
2023-10-01T04:18:17.371Z,101332.91
2023-10-01T04:22:23.112Z,101328.28
2023-10-01T04:26:26.593Z,101320.09
2023-10-01T04:30:28.713Z,101316.13
2023-10-01T04:34:30.528Z,101316.28
2023-10-01T04:38:33.837Z,101324.16
2023-10-01T04:42:38.569Z,101315.53
2023-10-01T04:46:42.349Z,101324.78
2023-10-01T04:50:47.614Z,101318.94
2023-10-01T04:54:50.978Z,101321.63
2023-10-01T04:58:53.304Z,101318.19
2023-10-01T05:02:55.337Z,101323.59
2023-10-01T05:07:05.868Z,101316.84
2023-10-01T05:11:12.554Z,101323.25
2023-10-01T05:15:26.391Z,101339.44
2023-10-01T05:19:30.640Z,101324.00
2023-10-01T05:23:34.075Z,101321.97
2023-10-01T05:27:36.350Z,101306.63
2023-10-01T05:31:41.031Z,101317.66
2023-10-01T05:35:45.891Z,101326.94
2023-10-01T05:40:12.326Z,101339.91
2023-10-01T05:44:16.615Z,101332.63
2023-10-01T05:48:24.206Z,101339.38
2023-10-01T05:52:27.568Z,101320.72
2023-10-01T05:56:38.277Z,101325.03
2023-10-01T06:00:58.148Z,101319.72
2023-10-01T06:05:20.468Z,101323.38
2023-10-01T06:09:24.650Z,101336.34
2023-10-01T06:13:29.794Z,101336.88
2023-10-01T06:17:31.630Z,101341.03
2023-10-01T06:21:34.004Z,101333.44
2023-10-01T06:25:42.007Z,101330.50
2023-10-01T06:29:53.288Z,101338.66
2023-10-01T06:33:56.897Z,101336.22
2023-10-01T06:38:01.118Z,101336.91
2023-10-01T06:42:25.696Z,101341.59
2023-10-01T06:46:28.786Z,101348.00
2023-10-01T06:50:30.662Z,101344.56
2023-10-01T06:54:34.962Z,101344.53
2023-10-01T06:58:36.782Z,101344.34
2023-10-01T07:02:40.656Z,101341.44
2023-10-01T07:06:45.343Z,101342.69
2023-10-01T07:10:51.831Z,101333.31
2023-10-01T07:14:54.390Z,101335.41
2023-10-01T07:18:56.466Z,101331.72
2023-10-01T07:22:58.851Z,101333.97
2023-10-01T07:27:04.856Z,101339.22
2023-10-01T07:31:08.626Z,101345.53
2023-10-01T07:35:12.281Z,101339.88
2023-10-01T07:39:14.568Z,101345.19
2023-10-01T07:43:16.652Z,101340.69
2023-10-01T07:47:45.537Z,101336.63
2023-10-01T07:51:49.421Z,101338.50
2023-10-01T07:55:51.601Z,101344.22
2023-10-01T07:59:54.439Z,101345.97
2023-10-01T08:03:59.466Z,101341.16
2023-10-01T08:08:03.528Z,101341.94
2023-10-01T08:12:08.368Z,101330.38
2023-10-01T08:16:14.769Z,101344.41
2023-10-01T08:20:20.045Z,101341.53
2023-10-01T08:24:30.847Z,101340.84
2023-10-01T08:28:44.527Z,101338.66
2023-10-01T08:32:54.971Z,101337.38
2023-10-01T08:36:59.411Z,101347.31
2023-10-01T08:41:06.637Z,101345.38
2023-10-01T08:45:12.860Z,101339.44
2023-10-01T08:49:25.101Z,101334.25
2023-10-01T08:53:28.309Z,101330.75
2023-10-01T08:57:39.390Z,101330.34
2023-10-01T09:01:41.587Z,101324.66
2023-10-01T09:06:02.557Z,101335.28
2023-10-01T09:10:06.580Z,101340.53
2023-10-01T09:14:18.437Z,101350.22
2023-10-01T09:18:24.085Z,101353.66
2023-10-01T09:22:31.622Z,101353.38
2023-10-01T09:26:57.375Z,101362.59
2023-10-01T09:31:22.720Z,101348.94
2023-10-01T09:35:40.691Z,101349.47
2023-10-01T09:39:43.131Z,101349.56
2023-10-01T09:43:49.478Z,101351.72
2023-10-01T09:48:03.835Z,101353.69
2023-10-01T09:52:08.259Z,101351.19
2023-10-01T09:56:15.326Z,101350.03
2023-10-01T10:00:22.174Z,101346.00
2023-10-01T10:04:25.661Z,101334.44
2023-10-01T10:08:28.122Z,101344.09
2023-10-01T10:12:35.204Z,101341.94
2023-10-01T10:16:59.700Z,101339.84
2023-10-01T10:21:06.545Z,101344.16
2023-10-01T10:25:27.234Z,101335.44
2023-10-01T10:29:48.460Z,101338.00
2023-10-01T10:34:23.494Z,101341.59
2023-10-01T10:38:52.996Z,101337.47
2023-10-01T10:43:02.087Z,101323.31
2023-10-01T10:47:06.005Z,101328.06
2023-10-01T10:51:21.206Z,101324.03
2023-10-01T10:55:25.675Z,101314.31
2023-10-01T10:59:29.680Z,101325.34
2023-10-01T11:03:42.589Z,101316.66
2023-10-01T11:07:59.868Z,101312.81
2023-10-01T11:12:20.139Z,101305.00
2023-10-01T11:16:24.054Z,101301.16
2023-10-01T11:20:32.691Z,101306.59
2023-10-01T11:24:42.483Z,101302.69
2023-10-01T11:28:44.589Z,101300.00
2023-10-01T11:33:00.494Z,101301.19
2023-10-01T11:37:12.929Z,101295.16
2023-10-01T11:41:15.553Z,101283.19
2023-10-01T11:45:35.871Z,101282.00
2023-10-01T11:49:38.519Z,101279.25
2023-10-01T11:53:57.356Z,101274.44
2023-10-01T11:57:59.196Z,101279.34
2023-10-01T12:02:21.171Z,101278.81
2023-10-01T12:06:35.304Z,101282.28
2023-10-01T12:10:37.306Z,101285.56
2023-10-01T12:14:57.987Z,101288.28
2023-10-01T12:19:20.936Z,101284.91
2023-10-01T12:23:27.162Z,101284.13
2023-10-01T12:27:46.141Z,101283.94
2023-10-01T12:31:50.300Z,101275.19
2023-10-01T12:35:54.603Z,101274.28
2023-10-01T12:40:16.074Z,101270.44
2023-10-01T12:44:35.257Z,101258.75
2023-10-01T12:48:39.083Z,101253.44
2023-10-01T12:52:41.111Z,101257.66
2023-10-01T12:56:49.375Z,101256.41
2023-10-01T13:00:51.685Z,101262.34
2023-10-01T13:05:17.247Z,101247.41
2023-10-01T13:09:55.295Z,101251.53
2023-10-01T13:14:09.619Z,101262.97
2023-10-01T13:18:19.501Z,101249.25
2023-10-01T13:22:21.907Z,101244.91
2023-10-01T13:26:33.032Z,101253.09
2023-10-01T13:30:55.327Z,101247.31
2023-10-01T13:34:59.716Z,101243.38
2023-10-01T13:39:16.480Z,101233.22
2023-10-01T13:43:37.245Z,101236.06
2023-10-01T13:47:57.873Z,101226.03
2023-10-01T13:52:18.319Z,101230.03
2023-10-01T13:56:41.961Z,101230.72
2023-10-01T14:01:16.185Z,101224.53
2023-10-01T14:05:50.696Z,101232.13
2023-10-01T14:09:53.588Z,101221.38
2023-10-01T14:13:56.018Z,101223.88
2023-10-01T14:17:59.575Z,101225.41
2023-10-01T14:22:03.446Z,101228.91
2023-10-01T14:26:11.927Z,101229.53
2023-10-01T14:30:26.912Z,101231.19
2023-10-01T14:34:28.983Z,101236.81
2023-10-01T14:38:41.755Z,101231.44
2023-10-01T14:42:43.572Z,101230.94
2023-10-01T14:46:53.797Z,101224.91
2023-10-01T14:50:57.988Z,101237.81
2023-10-01T14:55:03.487Z,101232.34
2023-10-01T14:59:09.425Z,101234.28
2023-10-01T15:03:11.645Z,101228.41
2023-10-01T15:07:17.574Z,101235.13
2023-10-01T15:11:19.731Z,101237.56
2023-10-01T15:15:25.682Z,101240.84
2023-10-01T15:19:48.189Z,101235.44
2023-10-01T15:24:00.311Z,101232.03
2023-10-01T15:28:02.789Z,101229.78
2023-10-01T15:32:16.263Z,101228.66
2023-10-01T15:36:18.646Z,101222.78
2023-10-01T15:40:26.559Z,101222.88
2023-10-01T15:44:28.576Z,101233.88
2023-10-01T15:48:34.332Z,101225.53
2023-10-01T15:52:47.745Z,101234.22
2023-10-01T15:56:53.476Z,101225.63
2023-10-01T16:00:56.370Z,101227.16
2023-10-01T16:05:06.630Z,101230.16
2023-10-01T16:09:08.873Z,101234.84
2023-10-01T16:13:18.949Z,101242.56
2023-10-01T16:17:20.914Z,101236.75
2023-10-01T16:21:23.552Z,101233.94
2023-10-01T16:25:28.120Z,101242.47
2023-10-01T16:29:30.330Z,101250.78
2023-10-01T16:33:42.027Z,101243.22
2023-10-01T16:37:44.838Z,101251.09
2023-10-01T16:41:50.646Z,101255.38
2023-10-01T16:45:53.479Z,101262.03
2023-10-01T16:49:55.732Z,101256.78
2023-10-01T16:54:01.197Z,101268.81
2023-10-01T16:58:12.525Z,101265.09
2023-10-01T17:02:19.697Z,101271.00
2023-10-01T17:06:25.013Z,101271.78
2023-10-01T17:10:27.710Z,101272.97
2023-10-01T17:14:30.005Z,101273.91
2023-10-01T17:18:39.711Z,101278.44
2023-10-01T17:22:46.439Z,101281.81
2023-10-01T17:26:50.172Z,101280.00
2023-10-01T17:30:52.938Z,101278.56
2023-10-01T17:34:57.872Z,101279.00
2023-10-01T17:39:20.681Z,101285.47
2023-10-01T17:43:28.366Z,101278.28
2023-10-01T17:47:34.557Z,101283.09
2023-10-01T17:51:44.750Z,101284.56
2023-10-01T17:55:55.265Z,101290.56
2023-10-01T18:00:00.456Z,101283.16
2023-10-01T18:04:10.561Z,101288.41
2023-10-01T18:08:12.736Z,101294.16
2023-10-01T18:12:31.076Z,101305.41
2023-10-01T18:16:33.446Z,101301.91
2023-10-01T18:20:36.979Z,101300.28
2023-10-01T18:24:39.408Z,101307.56
2023-10-01T18:28:43.077Z,101314.91
2023-10-01T18:32:47.446Z,101315.41
2023-10-01T18:36:56.259Z,101309.19
2023-10-01T18:40:59.636Z,101303.06
2023-10-01T18:45:11.379Z,101307.41
2023-10-01T18:49:16.143Z,101308.94
2023-10-01T18:53:18.293Z,101314.91
2023-10-01T18:57:20.384Z,101320.69
2023-10-01T19:01:24.231Z,101324.34
2023-10-01T19:05:27.911Z,101320.25
2023-10-01T19:09:35.879Z,101319.53
2023-10-01T19:13:38.206Z,101323.84
2023-10-01T19:17:40.676Z,101323.72
2023-10-01T19:21:43.303Z,101321.81
2023-10-01T19:25:45.561Z,101325.41
2023-10-01T19:29:47.649Z,101320.25
2023-10-01T19:33:52.984Z,101322.00
2023-10-01T19:38:02.235Z,101330.16
2023-10-01T19:42:04.581Z,101330.69
2023-10-01T19:46:08.489Z,101335.03
2023-10-01T19:50:37.042Z,101335.97
2023-10-01T19:54:43.714Z,101332.91
2023-10-01T19:58:49.174Z,101340.22
2023-10-01T20:02:51.129Z,101338.25
2023-10-01T20:06:53.676Z,101336.25
2023-10-01T20:10:57.671Z,101337.00
2023-10-01T20:15:00.309Z,101333.09
2023-10-01T20:19:03.701Z,101324.72
2023-10-01T20:23:09.181Z,101327.94
2023-10-01T20:27:11.664Z,101338.72
2023-10-01T20:31:16.624Z,101331.53
2023-10-01T20:35:19.668Z,101330.16
2023-10-01T20:39:39.554Z,101332.97
2023-10-01T20:43:47.107Z,101331.09
2023-10-01T20:47:49.353Z,101329.25
2023-10-01T20:52:00.125Z,101326.94
2023-10-01T20:56:06.949Z,101321.69
2023-10-01T21:00:23.758Z,101319.78
2023-10-01T21:04:34.249Z,101331.16
2023-10-01T21:08:36.379Z,101325.44
2023-10-01T21:12:38.501Z,101327.78
2023-10-01T21:16:41.582Z,101332.28
2023-10-01T21:20:45.211Z,101331.34
2023-10-01T21:24:47.750Z,101335.59
2023-10-01T21:28:50.172Z,101331.53
2023-10-01T21:32:56.865Z,101327.41
2023-10-01T21:37:01.809Z,101326.09
2023-10-01T21:46:01.084Z,101332.25
2023-10-01T21:50:09.610Z,101330.16
2023-10-01T21:54:24.154Z,101334.50
2023-10-01T21:58:30.202Z,101339.28
2023-10-01T22:02:32.963Z,101337.78
2023-10-01T22:06:38.731Z,101333.31
2023-10-01T22:10:41.433Z,101342.50
2023-10-01T22:14:44.515Z,101335.28
2023-10-01T22:18:48.441Z,101343.44
2023-10-01T22:22:51.707Z,101341.47
2023-10-01T22:26:56.323Z,101327.63
2023-10-01T22:30:58.438Z,101325.81
2023-10-01T22:35:09.000Z,101331.66
2023-10-01T22:39:14.948Z,101326.78
2023-10-01T22:43:22.702Z,101334.84
2023-10-01T22:47:26.851Z,101333.88
2023-10-01T22:51:31.729Z,101339.22
2023-10-01T22:55:34.941Z,101346.59
2023-10-01T22:59:37.532Z,101344.16
2023-10-01T23:03:41.422Z,101341.88
2023-10-01T23:07:45.348Z,101345.88
2023-10-01T23:11:57.455Z,101344.50
2023-10-01T23:16:02.797Z,101347.69
2023-10-01T23:20:05.923Z,101345.38
2023-10-01T23:24:08.186Z,101349.50
2023-10-01T23:28:15.363Z,101355.13
2023-10-01T23:32:20.471Z,101359.41
2023-10-01T23:36:37.436Z,101362.63
2023-10-01T23:40:43.755Z,101368.16
2023-10-01T23:44:52.071Z,101360.84
2023-10-01T23:48:55.707Z,101358.59
2023-10-01T23:53:07.670Z,101366.69
2023-10-01T23:57:14.957Z,101362.47
